sensor_id;sensor_type;location;lat;lon;timestamp;temperature;humidity
12655;DHT22;6392;44.644;11.448;2024-01-07T00:00:55;9.10;99.90
12655;DHT22;6392;44.644;11.448;2024-01-07T00:03:22;9.10;99.90
12655;DHT22;6392;44.644;11.448;2024-01-07T00:05:50;9.10;99.90
12655;DHT22;6392;44.644;11.448;2024-01-07T00:08:17;9.10;99.90
12655;DHT22;6392;44.644;11.448;2024-01-07T00:10:44;9.10;99.90
12655;DHT22;6392;44.644;11.448;2024-01-07T00:13:11;9.10;99.90
12655;DHT22;6392;44.644;11.448;2024-01-07T00:15:39;9.10;99.90
12655;DHT22;6392;44.644;11.448;2024-01-07T00:18:06;9.00;99.90
12655;DHT22;6392;44.644;11.448;2024-01-07T00:20:33;9.00;99.90
12655;DHT22;6392;44.644;11.448;2024-01-07T00:23:01;9.10;99.90
12655;DHT22;6392;44.644;11.448;2024-01-07T00:25:28;9.10;99.90
12655;DHT22;6392;44.644;11.448;2024-01-07T00:27:55;9.00;99.90
12655;DHT22;6392;44.644;11.448;2024-01-07T00:30:22;9.10;99.90
12655;DHT22;6392;44.644;11.448;2024-01-07T00:32:49;9.00;99.90
12655;DHT22;6392;44.644;11.448;2024-01-07T00:35:17;9.10;99.90
12655;DHT22;6392;44.644;11.448;2024-01-07T00:37:44;9.10;99.90
12655;DHT22;6392;44.644;11.448;2024-01-07T00:40:13;9.10;99.90
12655;DHT22;6392;44.644;11.448;2024-01-07T00:42:40;9.10;99.90
12655;DHT22;6392;44.644;11.448;2024-01-07T00:45:08;9.10;99.90
12655;DHT22;6392;44.644;11.448;2024-01-07T00:47:35;9.10;99.90
12655;DHT22;6392;44.644;11.448;2024-01-07T00:50:03;9.10;99.90
12655;DHT22;6392;44.644;11.448;2024-01-07T00:52:30;9.10;99.90
12655;DHT22;6392;44.644;11.448;2024-01-07T00:54:57;9.00;99.90
12655;DHT22;6392;44.644;11.448;2024-01-07T00:57:25;9.00;99.90
12655;DHT22;6392;44.644;11.448;2024-01-07T00:59:52;9.00;99.90
12655;DHT22;6392;44.644;11.448;2024-01-07T01:02:20;9.00;99.90
12655;DHT22;6392;44.644;11.448;2024-01-07T01:04:47;9.00;99.90
12655;DHT22;6392;44.644;11.448;2024-01-07T01:07:14;9.00;99.90
12655;DHT22;6392;44.644;11.448;2024-01-07T01:09:41;9.00;99.90
12655;DHT22;6392;44.644;11.448;2024-01-07T01:12:08;9.00;99.90
12655;DHT22;6392;44.644;11.448;2024-01-07T01:14:37;9.00;99.90
12655;DHT22;6392;44.644;11.448;2024-01-07T01:17:04;9.00;99.90
12655;DHT22;6392;44.644;11.448;2024-01-07T01:19:31;9.00;99.90
12655;DHT22;6392;44.644;11.448;2024-01-07T01:21:59;9.00;99.90
12655;DHT22;6392;44.644;11.448;2024-01-07T01:24:26;9.00;99.90
12655;DHT22;6392;44.644;11.448;2024-01-07T01:26:53;9.00;99.90
12655;DHT22;6392;44.644;11.448;2024-01-07T01:29:20;9.00;99.90
12655;DHT22;6392;44.644;11.448;2024-01-07T01:31:49;9.00;99.90
12655;DHT22;6392;44.644;11.448;2024-01-07T01:34:16;9.00;99.90
12655;DHT22;6392;44.644;11.448;2024-01-07T01:36:43;9.00;99.90
12655;DHT22;6392;44.644;11.448;2024-01-07T01:39:10;9.00;99.90
12655;DHT22;6392;44.644;11.448;2024-01-07T01:41:37;9.00;99.90
12655;DHT22;6392;44.644;11.448;2024-01-07T01:44:04;9.00;99.90
12655;DHT22;6392;44.644;11.448;2024-01-07T01:46:31;9.00;99.90
12655;DHT22;6392;44.644;11.448;2024-01-07T01:49:00;9.00;99.90
12655;DHT22;6392;44.644;11.448;2024-01-07T01:51:28;9.00;99.90
12655;DHT22;6392;44.644;11.448;2024-01-07T01:53:55;9.00;99.90
12655;DHT22;6392;44.644;11.448;2024-01-07T01:56:24;9.00;99.90
12655;DHT22;6392;44.644;11.448;2024-01-07T01:58:53;9.00;99.90
12655;DHT22;6392;44.644;11.448;2024-01-07T02:01:20;9.00;99.90
12655;DHT22;6392;44.644;11.448;2024-01-07T02:03:47;9.00;99.90
12655;DHT22;6392;44.644;11.448;2024-01-07T02:06:16;8.90;99.90
12655;DHT22;6392;44.644;11.448;2024-01-07T02:08:43;9.00;99.90
12655;DHT22;6392;44.644;11.448;2024-01-07T02:11:17;9.00;99.90
12655;DHT22;6392;44.644;11.448;2024-01-07T02:13:45;9.00;99.90
12655;DHT22;6392;44.644;11.448;2024-01-07T02:16:12;8.90;99.90
12655;DHT22;6392;44.644;11.448;2024-01-07T02:18:41;9.00;99.90
12655;DHT22;6392;44.644;11.448;2024-01-07T02:21:09;8.90;99.90
12655;DHT22;6392;44.644;11.448;2024-01-07T02:23:38;8.90;99.90
12655;DHT22;6392;44.644;11.448;2024-01-07T02:26:07;8.90;99.90
12655;DHT22;6392;44.644;11.448;2024-01-07T02:28:34;8.90;99.90
12655;DHT22;6392;44.644;11.448;2024-01-07T02:31:01;8.90;99.90
12655;DHT22;6392;44.644;11.448;2024-01-07T02:33:28;8.90;99.90
12655;DHT22;6392;44.644;11.448;2024-01-07T02:35:56;8.90;99.90
12655;DHT22;6392;44.644;11.448;2024-01-07T02:38:23;8.90;99.90
12655;DHT22;6392;44.644;11.448;2024-01-07T02:40:50;8.90;99.90
12655;DHT22;6392;44.644;11.448;2024-01-07T02:43:19;8.90;99.90
12655;DHT22;6392;44.644;11.448;2024-01-07T02:45:46;8.90;99.90
12655;DHT22;6392;44.644;11.448;2024-01-07T02:48:13;8.90;99.90
12655;DHT22;6392;44.644;11.448;2024-01-07T02:50:40;8.90;99.90
12655;DHT22;6392;44.644;11.448;2024-01-07T02:53:07;8.90;99.90
12655;DHT22;6392;44.644;11.448;2024-01-07T02:55:36;8.90;99.90
12655;DHT22;6392;44.644;11.448;2024-01-07T02:58:02;8.80;99.90
12655;DHT22;6392;44.644;11.448;2024-01-07T03:00:31;8.80;99.90
12655;DHT22;6392;44.644;11.448;2024-01-07T03:02:58;8.80;99.90
12655;DHT22;6392;44.644;11.448;2024-01-07T03:05:25;8.70;99.90
12655;DHT22;6392;44.644;11.448;2024-01-07T03:07:54;8.70;99.90
12655;DHT22;6392;44.644;11.448;2024-01-07T03:10:21;8.70;99.90
12655;DHT22;6392;44.644;11.448;2024-01-07T03:12:48;8.60;99.90
12655;DHT22;6392;44.644;11.448;2024-01-07T03:15:16;8.70;99.90
12655;DHT22;6392;44.644;11.448;2024-01-07T03:17:44;8.70;99.90
12655;DHT22;6392;44.644;11.448;2024-01-07T03:20:11;8.70;99.90
12655;DHT22;6392;44.644;11.448;2024-01-07T03:22:39;8.70;99.90
12655;DHT22;6392;44.644;11.448;2024-01-07T03:25:07;8.70;99.90
12655;DHT22;6392;44.644;11.448;2024-01-07T03:27:34;8.70;99.90
12655;DHT22;6392;44.644;11.448;2024-01-07T03:30:01;8.70;99.90
12655;DHT22;6392;44.644;11.448;2024-01-07T03:32:28;8.80;99.90
12655;DHT22;6392;44.644;11.448;2024-01-07T03:34:57;8.80;99.90
12655;DHT22;6392;44.644;11.448;2024-01-07T03:37:24;8.80;99.90
12655;DHT22;6392;44.644;11.448;2024-01-07T03:39:51;8.70;99.90
12655;DHT22;6392;44.644;11.448;2024-01-07T03:42:18;8.70;99.90
12655;DHT22;6392;44.644;11.448;2024-01-07T03:44:45;8.70;99.90
12655;DHT22;6392;44.644;11.448;2024-01-07T03:47:12;8.60;99.90
12655;DHT22;6392;44.644;11.448;2024-01-07T03:49:39;8.60;99.90
12655;DHT22;6392;44.644;11.448;2024-01-07T03:52:08;8.60;99.90
12655;DHT22;6392;44.644;11.448;2024-01-07T03:54:35;8.60;99.90
12655;DHT22;6392;44.644;11.448;2024-01-07T03:57:02;8.60;99.90
12655;DHT22;6392;44.644;11.448;2024-01-07T03:59:29;8.60;99.90
12655;DHT22;6392;44.644;11.448;2024-01-07T04:01:57;8.60;99.90
12655;DHT22;6392;44.644;11.448;2024-01-07T04:04:24;8.60;99.90
12655;DHT22;6392;44.644;11.448;2024-01-07T04:06:51;8.60;99.90
12655;DHT22;6392;44.644;11.448;2024-01-07T04:09:20;8.60;99.90
12655;DHT22;6392;44.644;11.448;2024-01-07T04:11:47;8.60;99.90
12655;DHT22;6392;44.644;11.448;2024-01-07T04:14:15;8.60;99.90
12655;DHT22;6392;44.644;11.448;2024-01-07T04:16:42;8.60;99.90
12655;DHT22;6392;44.644;11.448;2024-01-07T04:19:09;8.60;99.90
12655;DHT22;6392;44.644;11.448;2024-01-07T04:21:36;8.60;99.90
12655;DHT22;6392;44.644;11.448;2024-01-07T04:24:04;8.60;99.90
12655;DHT22;6392;44.644;11.448;2024-01-07T04:26:32;8.50;99.90
12655;DHT22;6392;44.644;11.448;2024-01-07T04:28:59;8.60;99.90
12655;DHT22;6392;44.644;11.448;2024-01-07T04:31:26;8.60;99.90
12655;DHT22;6392;44.644;11.448;2024-01-07T04:33:54;8.60;99.90
12655;DHT22;6392;44.644;11.448;2024-01-07T04:36:21;8.50;99.90
12655;DHT22;6392;44.644;11.448;2024-01-07T04:38:48;8.50;99.90
12655;DHT22;6392;44.644;11.448;2024-01-07T04:41:15;8.50;99.90
12655;DHT22;6392;44.644;11.448;2024-01-07T04:43:44;8.50;99.90
12655;DHT22;6392;44.644;11.448;2024-01-07T04:46:11;8.50;99.90
12655;DHT22;6392;44.644;11.448;2024-01-07T04:48:38;8.60;99.90
12655;DHT22;6392;44.644;11.448;2024-01-07T04:51:06;8.60;99.90
12655;DHT22;6392;44.644;11.448;2024-01-07T04:53:33;8.60;99.90
12655;DHT22;6392;44.644;11.448;2024-01-07T04:56:01;8.60;99.90
12655;DHT22;6392;44.644;11.448;2024-01-07T04:58:28;8.60;99.90
12655;DHT22;6392;44.644;11.448;2024-01-07T05:00:56;8.60;99.90
12655;DHT22;6392;44.644;11.448;2024-01-07T05:03:23;8.60;99.90
12655;DHT22;6392;44.644;11.448;2024-01-07T05:05:51;8.60;99.90
12655;DHT22;6392;44.644;11.448;2024-01-07T05:08:18;8.60;99.90
12655;DHT22;6392;44.644;11.448;2024-01-07T05:10:45;8.60;99.90
12655;DHT22;6392;44.644;11.448;2024-01-07T05:13:12;8.50;99.90
12655;DHT22;6392;44.644;11.448;2024-01-07T05:15:39;8.50;99.90
12655;DHT22;6392;44.644;11.448;2024-01-07T05:18:09;8.50;99.90
12655;DHT22;6392;44.644;11.448;2024-01-07T05:20:36;8.50;99.90
12655;DHT22;6392;44.644;11.448;2024-01-07T05:23:03;8.50;99.90
12655;DHT22;6392;44.644;11.448;2024-01-07T05:25:30;8.50;99.90
12655;DHT22;6392;44.644;11.448;2024-01-07T05:27:57;8.50;99.90
12655;DHT22;6392;44.644;11.448;2024-01-07T05:30:25;8.50;99.90
12655;DHT22;6392;44.644;11.448;2024-01-07T05:32:52;8.50;99.90
12655;DHT22;6392;44.644;11.448;2024-01-07T05:35:20;8.50;99.90
12655;DHT22;6392;44.644;11.448;2024-01-07T05:37:47;8.50;99.90
12655;DHT22;6392;44.644;11.448;2024-01-07T05:40:14;8.50;99.90
12655;DHT22;6392;44.644;11.448;2024-01-07T05:42:41;8.50;99.90
12655;DHT22;6392;44.644;11.448;2024-01-07T05:45:09;8.50;99.90
12655;DHT22;6392;44.644;11.448;2024-01-07T05:47:36;8.50;99.90
12655;DHT22;6392;44.644;11.448;2024-01-07T05:50:03;8.50;99.90
12655;DHT22;6392;44.644;11.448;2024-01-07T05:52:32;8.50;99.90
12655;DHT22;6392;44.644;11.448;2024-01-07T05:54:59;8.50;99.90
12655;DHT22;6392;44.644;11.448;2024-01-07T05:57:26;8.50;99.90
12655;DHT22;6392;44.644;11.448;2024-01-07T05:59:53;8.50;99.90
12655;DHT22;6392;44.644;11.448;2024-01-07T06:02:20;8.50;99.90
12655;DHT22;6392;44.644;11.448;2024-01-07T06:04:48;8.50;99.90
12655;DHT22;6392;44.644;11.448;2024-01-07T06:07:15;8.50;99.90
12655;DHT22;6392;44.644;11.448;2024-01-07T06:09:44;8.50;99.90
12655;DHT22;6392;44.644;11.448;2024-01-07T06:12:11;8.40;99.90
12655;DHT22;6392;44.644;11.448;2024-01-07T06:14:38;8.40;99.90
12655;DHT22;6392;44.644;11.448;2024-01-07T06:17:05;8.40;99.90
12655;DHT22;6392;44.644;11.448;2024-01-07T06:19:32;8.40;99.90
12655;DHT22;6392;44.644;11.448;2024-01-07T06:21:59;8.40;99.90
12655;DHT22;6392;44.644;11.448;2024-01-07T06:24:26;8.40;99.90
12655;DHT22;6392;44.644;11.448;2024-01-07T06:26:55;8.40;99.90
12655;DHT22;6392;44.644;11.448;2024-01-07T06:29:22;8.40;99.90
12655;DHT22;6392;44.644;11.448;2024-01-07T06:31:49;8.30;99.90
12655;DHT22;6392;44.644;11.448;2024-01-07T06:34:16;8.30;99.90
12655;DHT22;6392;44.644;11.448;2024-01-07T06:36:43;8.30;99.90
12655;DHT22;6392;44.644;11.448;2024-01-07T06:39:10;8.30;99.90
12655;DHT22;6392;44.644;11.448;2024-01-07T06:41:38;8.30;99.90
12655;DHT22;6392;44.644;11.448;2024-01-07T06:44:06;8.30;99.90
12655;DHT22;6392;44.644;11.448;2024-01-07T06:46:33;8.30;99.90
12655;DHT22;6392;44.644;11.448;2024-01-07T06:49:01;8.30;99.90
12655;DHT22;6392;44.644;11.448;2024-01-07T06:51:28;8.20;99.90
12655;DHT22;6392;44.644;11.448;2024-01-07T06:53:55;8.20;99.90
12655;DHT22;6392;44.644;11.448;2024-01-07T06:56:22;8.20;99.90
12655;DHT22;6392;44.644;11.448;2024-01-07T06:58:50;8.20;99.90
12655;DHT22;6392;44.644;11.448;2024-01-07T07:01:20;8.20;99.90
12655;DHT22;6392;44.644;11.448;2024-01-07T07:03:48;8.20;99.90
12655;DHT22;6392;44.644;11.448;2024-01-07T07:06:15;8.20;99.90
12655;DHT22;6392;44.644;11.448;2024-01-07T07:08:42;8.20;99.90
12655;DHT22;6392;44.644;11.448;2024-01-07T07:11:09;8.20;99.90
12655;DHT22;6392;44.644;11.448;2024-01-07T07:13:37;8.20;99.90
12655;DHT22;6392;44.644;11.448;2024-01-07T07:16:06;8.20;99.90
12655;DHT22;6392;44.644;11.448;2024-01-07T07:18:34;8.20;99.90
12655;DHT22;6392;44.644;11.448;2024-01-07T07:21:01;8.20;99.90
12655;DHT22;6392;44.644;11.448;2024-01-07T07:23:29;8.30;99.90
12655;DHT22;6392;44.644;11.448;2024-01-07T07:25:56;8.30;99.90
12655;DHT22;6392;44.644;11.448;2024-01-07T07:28:23;8.30;99.90
12655;DHT22;6392;44.644;11.448;2024-01-07T07:30:50;8.20;99.90
12655;DHT22;6392;44.644;11.448;2024-01-07T07:33:17;8.30;99.90
12655;DHT22;6392;44.644;11.448;2024-01-07T07:35:46;8.20;99.90
12655;DHT22;6392;44.644;11.448;2024-01-07T07:38:13;8.30;99.90
12655;DHT22;6392;44.644;11.448;2024-01-07T07:40:40;8.30;99.90
12655;DHT22;6392;44.644;11.448;2024-01-07T07:43:08;8.30;99.90
12655;DHT22;6392;44.644;11.448;2024-01-07T07:45:35;8.30;99.90
12655;DHT22;6392;44.644;11.448;2024-01-07T07:48:02;8.30;99.90
12655;DHT22;6392;44.644;11.448;2024-01-07T07:50:29;8.30;99.90
12655;DHT22;6392;44.644;11.448;2024-01-07T07:52:58;8.30;99.90
12655;DHT22;6392;44.644;11.448;2024-01-07T07:55:25;8.30;99.90
12655;DHT22;6392;44.644;11.448;2024-01-07T07:57:52;8.30;99.90
12655;DHT22;6392;44.644;11.448;2024-01-07T08:00:20;8.40;99.90
12655;DHT22;6392;44.644;11.448;2024-01-07T08:02:47;8.40;99.90
12655;DHT22;6392;44.644;11.448;2024-01-07T08:05:13;8.40;99.90
12655;DHT22;6392;44.644;11.448;2024-01-07T08:07:40;8.40;99.90
12655;DHT22;6392;44.644;11.448;2024-01-07T08:10:09;8.40;99.90
12655;DHT22;6392;44.644;11.448;2024-01-07T08:12:36;8.40;99.90
12655;DHT22;6392;44.644;11.448;2024-01-07T08:15:05;8.40;99.90
12655;DHT22;6392;44.644;11.448;2024-01-07T08:17:32;8.40;99.90
12655;DHT22;6392;44.644;11.448;2024-01-07T08:19:59;8.40;99.90
12655;DHT22;6392;44.644;11.448;2024-01-07T08:22:27;8.40;99.90
12655;DHT22;6392;44.644;11.448;2024-01-07T08:24:54;8.50;99.90
12655;DHT22;6392;44.644;11.448;2024-01-07T08:27:23;8.50;99.90
12655;DHT22;6392;44.644;11.448;2024-01-07T08:29:50;8.50;99.90
12655;DHT22;6392;44.644;11.448;2024-01-07T08:32:17;8.50;99.90
12655;DHT22;6392;44.644;11.448;2024-01-07T08:34:44;8.50;99.90
12655;DHT22;6392;44.644;11.448;2024-01-07T08:37:12;8.50;99.90
12655;DHT22;6392;44.644;11.448;2024-01-07T08:39:39;8.50;99.90
12655;DHT22;6392;44.644;11.448;2024-01-07T08:42:06;8.50;99.90
12655;DHT22;6392;44.644;11.448;2024-01-07T08:44:35;8.60;99.90
12655;DHT22;6392;44.644;11.448;2024-01-07T08:47:02;8.60;99.90
12655;DHT22;6392;44.644;11.448;2024-01-07T08:49:29;8.60;99.90
12655;DHT22;6392;44.644;11.448;2024-01-07T08:51:56;8.60;99.90
12655;DHT22;6392;44.644;11.448;2024-01-07T08:54:23;8.60;99.90
12655;DHT22;6392;44.644;11.448;2024-01-07T08:56:51;8.60;99.90
12655;DHT22;6392;44.644;11.448;2024-01-07T08:59:18;8.60;99.90
12655;DHT22;6392;44.644;11.448;2024-01-07T09:01:46;8.60;99.90
12655;DHT22;6392;44.644;11.448;2024-01-07T09:04:13;8.70;99.90
12655;DHT22;6392;44.644;11.448;2024-01-07T09:06:42;8.70;99.90
12655;DHT22;6392;44.644;11.448;2024-01-07T09:09:09;8.70;99.90
12655;DHT22;6392;44.644;11.448;2024-01-07T09:11:36;8.70;99.90
12655;DHT22;6392;44.644;11.448;2024-01-07T09:14:03;8.70;99.90
12655;DHT22;6392;44.644;11.448;2024-01-07T09:16:31;8.70;99.90
12655;DHT22;6392;44.644;11.448;2024-01-07T09:18:59;8.70;99.90
12655;DHT22;6392;44.644;11.448;2024-01-07T09:21:26;8.70;99.90
12655;DHT22;6392;44.644;11.448;2024-01-07T09:23:53;8.70;99.90
12655;DHT22;6392;44.644;11.448;2024-01-07T09:26:20;8.70;99.90
12655;DHT22;6392;44.644;11.448;2024-01-07T09:28:47;8.70;99.90
12655;DHT22;6392;44.644;11.448;2024-01-07T09:31:14;8.70;99.90
12655;DHT22;6392;44.644;11.448;2024-01-07T09:33:42;8.70;99.90
12655;DHT22;6392;44.644;11.448;2024-01-07T09:36:10;8.70;99.90
12655;DHT22;6392;44.644;11.448;2024-01-07T09:38:37;8.70;99.90
12655;DHT22;6392;44.644;11.448;2024-01-07T09:41:05;8.70;99.90
12655;DHT22;6392;44.644;11.448;2024-01-07T09:43:32;8.70;99.90
12655;DHT22;6392;44.644;11.448;2024-01-07T09:46:00;8.70;99.90
12655;DHT22;6392;44.644;11.448;2024-01-07T09:48:27;8.70;99.90
12655;DHT22;6392;44.644;11.448;2024-01-07T09:50:54;8.70;99.90
12655;DHT22;6392;44.644;11.448;2024-01-07T09:53:25;8.70;99.90
12655;DHT22;6392;44.644;11.448;2024-01-07T09:56:04;8.70;99.90
12655;DHT22;6392;44.644;11.448;2024-01-07T09:58:32;8.60;99.90
12655;DHT22;6392;44.644;11.448;2024-01-07T10:00:59;8.60;99.90
12655;DHT22;6392;44.644;11.448;2024-01-07T10:03:27;8.70;99.90
12655;DHT22;6392;44.644;11.448;2024-01-07T10:05:54;8.70;99.90
12655;DHT22;6392;44.644;11.448;2024-01-07T10:08:22;8.60;99.90
12655;DHT22;6392;44.644;11.448;2024-01-07T10:10:49;8.60;99.90
12655;DHT22;6392;44.644;11.448;2024-01-07T10:13:16;8.60;99.90
12655;DHT22;6392;44.644;11.448;2024-01-07T10:15:43;8.60;99.90
12655;DHT22;6392;44.644;11.448;2024-01-07T10:18:11;8.60;99.90
12655;DHT22;6392;44.644;11.448;2024-01-07T10:20:38;8.60;99.90
12655;DHT22;6392;44.644;11.448;2024-01-07T10:23:05;8.60;99.90
12655;DHT22;6392;44.644;11.448;2024-01-07T10:25:35;8.70;99.90
12655;DHT22;6392;44.644;11.448;2024-01-07T10:28:03;8.70;99.90
12655;DHT22;6392;44.644;11.448;2024-01-07T10:30:30;8.70;99.90
12655;DHT22;6392;44.644;11.448;2024-01-07T10:32:58;8.60;99.90
12655;DHT22;6392;44.644;11.448;2024-01-07T10:35:32;8.60;99.90
12655;DHT22;6392;44.644;11.448;2024-01-07T10:38:00;8.60;99.90
12655;DHT22;6392;44.644;11.448;2024-01-07T10:40:27;8.60;99.90
12655;DHT22;6392;44.644;11.448;2024-01-07T10:42:56;8.70;99.90
12655;DHT22;6392;44.644;11.448;2024-01-07T10:45:23;8.60;99.90
12655;DHT22;6392;44.644;11.448;2024-01-07T10:47:55;8.60;99.90
12655;DHT22;6392;44.644;11.448;2024-01-07T10:50:22;8.60;99.90
12655;DHT22;6392;44.644;11.448;2024-01-07T10:52:50;8.60;99.90
12655;DHT22;6392;44.644;11.448;2024-01-07T10:55:22;8.60;99.90
12655;DHT22;6392;44.644;11.448;2024-01-07T10:57:49;8.60;99.90
12655;DHT22;6392;44.644;11.448;2024-01-07T11:00:18;8.60;99.90
12655;DHT22;6392;44.644;11.448;2024-01-07T11:02:57;8.60;99.90
12655;DHT22;6392;44.644;11.448;2024-01-07T11:05:33;8.60;99.90
12655;DHT22;6392;44.644;11.448;2024-01-07T11:08:06;8.60;99.90
12655;DHT22;6392;44.644;11.448;2024-01-07T11:10:41;8.60;99.90
12655;DHT22;6392;44.644;11.448;2024-01-07T11:13:10;8.60;99.90
12655;DHT22;6392;44.644;11.448;2024-01-07T11:15:54;8.60;99.90
12655;DHT22;6392;44.644;11.448;2024-01-07T11:18:22;8.60;99.90
12655;DHT22;6392;44.644;11.448;2024-01-07T11:20:49;8.60;99.90
12655;DHT22;6392;44.644;11.448;2024-01-07T11:23:27;8.60;99.90
12655;DHT22;6392;44.644;11.448;2024-01-07T11:25:56;8.60;99.90
12655;DHT22;6392;44.644;11.448;2024-01-07T11:31:43;8.70;99.90
12655;DHT22;6392;44.644;11.448;2024-01-07T11:34:41;8.70;99.90
12655;DHT22;6392;44.644;11.448;2024-01-07T11:37:10;8.70;99.90
12655;DHT22;6392;44.644;11.448;2024-01-07T11:39:38;8.70;99.90
12655;DHT22;6392;44.644;11.448;2024-01-07T11:42:06;8.70;99.90
12655;DHT22;6392;44.644;11.448;2024-01-07T11:44:36;8.70;99.90
12655;DHT22;6392;44.644;11.448;2024-01-07T11:47:05;8.70;99.90
12655;DHT22;6392;44.644;11.448;2024-01-07T11:49:32;8.80;99.90
12655;DHT22;6392;44.644;11.448;2024-01-07T11:51:59;8.80;99.90
12655;DHT22;6392;44.644;11.448;2024-01-07T11:54:27;8.80;99.90
12655;DHT22;6392;44.644;11.448;2024-01-07T11:56:55;8.70;99.90
12655;DHT22;6392;44.644;11.448;2024-01-07T11:59:22;8.70;99.90
12655;DHT22;6392;44.644;11.448;2024-01-07T12:01:50;8.70;99.90
12655;DHT22;6392;44.644;11.448;2024-01-07T12:04:20;8.70;99.90
12655;DHT22;6392;44.644;11.448;2024-01-07T12:06:47;8.70;99.90
12655;DHT22;6392;44.644;11.448;2024-01-07T12:09:15;8.70;99.90
12655;DHT22;6392;44.644;11.448;2024-01-07T12:11:44;8.70;99.90
12655;DHT22;6392;44.644;11.448;2024-01-07T12:14:11;8.70;99.90
12655;DHT22;6392;44.644;11.448;2024-01-07T12:16:39;8.70;99.90
12655;DHT22;6392;44.644;11.448;2024-01-07T12:19:07;8.70;99.90
12655;DHT22;6392;44.644;11.448;2024-01-07T12:21:36;8.60;99.90
12655;DHT22;6392;44.644;11.448;2024-01-07T12:24:04;8.60;99.90
12655;DHT22;6392;44.644;11.448;2024-01-07T12:26:31;8.60;99.90
12655;DHT22;6392;44.644;11.448;2024-01-07T12:28:59;8.60;99.90
12655;DHT22;6392;44.644;11.448;2024-01-07T12:31:30;8.60;99.90
12655;DHT22;6392;44.644;11.448;2024-01-07T12:33:57;8.70;99.90
12655;DHT22;6392;44.644;11.448;2024-01-07T12:36:25;8.60;99.90
12655;DHT22;6392;44.644;11.448;2024-01-07T12:38:53;8.60;99.90
12655;DHT22;6392;44.644;11.448;2024-01-07T12:41:21;8.70;99.90
12655;DHT22;6392;44.644;11.448;2024-01-07T12:43:48;8.70;99.90
12655;DHT22;6392;44.644;11.448;2024-01-07T12:46:15;8.70;99.90
12655;DHT22;6392;44.644;11.448;2024-01-07T12:48:42;8.70;99.90
12655;DHT22;6392;44.644;11.448;2024-01-07T12:51:09;8.80;99.90
12655;DHT22;6392;44.644;11.448;2024-01-07T12:53:36;8.80;99.90
12655;DHT22;6392;44.644;11.448;2024-01-07T12:56:05;8.80;99.90
12655;DHT22;6392;44.644;11.448;2024-01-07T12:58:33;8.80;99.90
12655;DHT22;6392;44.644;11.448;2024-01-07T13:01:00;8.80;99.90
12655;DHT22;6392;44.644;11.448;2024-01-07T13:03:27;8.80;99.90
12655;DHT22;6392;44.644;11.448;2024-01-07T13:05:54;8.80;99.90
12655;DHT22;6392;44.644;11.448;2024-01-07T13:08:22;8.80;99.90
12655;DHT22;6392;44.644;11.448;2024-01-07T13:10:51;8.80;99.90
12655;DHT22;6392;44.644;11.448;2024-01-07T13:13:20;8.90;99.90
12655;DHT22;6392;44.644;11.448;2024-01-07T13:15:48;8.90;99.90
12655;DHT22;6392;44.644;11.448;2024-01-07T13:18:16;8.90;99.90
12655;DHT22;6392;44.644;11.448;2024-01-07T13:20:43;8.90;99.90
12655;DHT22;6392;44.644;11.448;2024-01-07T13:23:10;8.90;99.90
12655;DHT22;6392;44.644;11.448;2024-01-07T13:25:38;8.80;99.90
12655;DHT22;6392;44.644;11.448;2024-01-07T13:28:05;8.90;99.90
12655;DHT22;6392;44.644;11.448;2024-01-07T13:30:37;8.90;99.90
12655;DHT22;6392;44.644;11.448;2024-01-07T13:33:06;8.90;99.90
12655;DHT22;6392;44.644;11.448;2024-01-07T13:35:33;8.90;99.90
12655;DHT22;6392;44.644;11.448;2024-01-07T13:38:00;8.90;99.90
12655;DHT22;6392;44.644;11.448;2024-01-07T13:40:28;8.90;99.90
12655;DHT22;6392;44.644;11.448;2024-01-07T13:42:55;8.90;99.90
12655;DHT22;6392;44.644;11.448;2024-01-07T13:45:22;8.90;99.90
12655;DHT22;6392;44.644;11.448;2024-01-07T13:47:50;8.90;99.90
12655;DHT22;6392;44.644;11.448;2024-01-07T13:50:17;8.90;99.90
12655;DHT22;6392;44.644;11.448;2024-01-07T13:52:45;8.90;99.90
12655;DHT22;6392;44.644;11.448;2024-01-07T13:55:12;8.90;99.90
12655;DHT22;6392;44.644;11.448;2024-01-07T13:57:39;9.00;99.90
12655;DHT22;6392;44.644;11.448;2024-01-07T14:00:08;9.00;99.90
12655;DHT22;6392;44.644;11.448;2024-01-07T14:02:36;9.00;99.90
12655;DHT22;6392;44.644;11.448;2024-01-07T14:05:06;9.00;99.90
12655;DHT22;6392;44.644;11.448;2024-01-07T14:07:35;9.00;99.90
12655;DHT22;6392;44.644;11.448;2024-01-07T14:10:03;9.00;99.90
12655;DHT22;6392;44.644;11.448;2024-01-07T14:12:31;9.00;99.90
12655;DHT22;6392;44.644;11.448;2024-01-07T14:14:58;8.90;99.90
12655;DHT22;6392;44.644;11.448;2024-01-07T14:17:25;8.90;99.90
12655;DHT22;6392;44.644;11.448;2024-01-07T14:19:52;8.90;99.90
12655;DHT22;6392;44.644;11.448;2024-01-07T14:22:21;8.90;99.90
12655;DHT22;6392;44.644;11.448;2024-01-07T14:24:48;8.90;99.90
12655;DHT22;6392;44.644;11.448;2024-01-07T14:27:16;8.90;99.90
12655;DHT22;6392;44.644;11.448;2024-01-07T14:29:43;8.90;99.90
12655;DHT22;6392;44.644;11.448;2024-01-07T14:32:11;8.90;99.90
12655;DHT22;6392;44.644;11.448;2024-01-07T14:34:38;8.90;99.90
12655;DHT22;6392;44.644;11.448;2024-01-07T14:37:07;8.90;99.90
12655;DHT22;6392;44.644;11.448;2024-01-07T14:39:36;8.90;99.90
12655;DHT22;6392;44.644;11.448;2024-01-07T14:42:04;8.90;99.90
12655;DHT22;6392;44.644;11.448;2024-01-07T14:44:31;8.80;99.90
12655;DHT22;6392;44.644;11.448;2024-01-07T14:46:58;8.80;99.90
12655;DHT22;6392;44.644;11.448;2024-01-07T14:49:25;8.80;99.90
12655;DHT22;6392;44.644;11.448;2024-01-07T14:51:52;8.80;99.90
12655;DHT22;6392;44.644;11.448;2024-01-07T14:54:19;8.80;99.90
12655;DHT22;6392;44.644;11.448;2024-01-07T14:56:48;8.80;99.90
12655;DHT22;6392;44.644;11.448;2024-01-07T14:59:15;8.80;99.90
12655;DHT22;6392;44.644;11.448;2024-01-07T15:01:42;8.70;99.90
12655;DHT22;6392;44.644;11.448;2024-01-07T15:04:10;8.70;99.90
12655;DHT22;6392;44.644;11.448;2024-01-07T15:06:41;8.70;99.90
12655;DHT22;6392;44.644;11.448;2024-01-07T15:09:09;8.70;99.90
12655;DHT22;6392;44.644;11.448;2024-01-07T15:11:39;8.70;99.90
12655;DHT22;6392;44.644;11.448;2024-01-07T15:14:09;8.70;99.90
12655;DHT22;6392;44.644;11.448;2024-01-07T15:16:37;8.70;99.90
12655;DHT22;6392;44.644;11.448;2024-01-07T15:19:04;8.70;99.90
12655;DHT22;6392;44.644;11.448;2024-01-07T15:21:31;8.70;99.90
12655;DHT22;6392;44.644;11.448;2024-01-07T15:23:58;8.60;99.90
12655;DHT22;6392;44.644;11.448;2024-01-07T15:26:25;8.60;99.90
12655;DHT22;6392;44.644;11.448;2024-01-07T15:28:52;8.60;99.90
12655;DHT22;6392;44.644;11.448;2024-01-07T15:31:20;8.60;99.90
12655;DHT22;6392;44.644;11.448;2024-01-07T15:33:48;8.60;99.90
12655;DHT22;6392;44.644;11.448;2024-01-07T15:36:15;8.60;99.90
12655;DHT22;6392;44.644;11.448;2024-01-07T15:38:43;8.60;99.90
12655;DHT22;6392;44.644;11.448;2024-01-07T15:41:10;8.60;99.90
12655;DHT22;6392;44.644;11.448;2024-01-07T15:43:37;8.60;99.90
12655;DHT22;6392;44.644;11.448;2024-01-07T15:46:04;8.70;99.90
12655;DHT22;6392;44.644;11.448;2024-01-07T15:48:33;8.70;99.90
12655;DHT22;6392;44.644;11.448;2024-01-07T15:51:00;8.70;99.90